Time;durP1;ratioP1;P1;durP2;ratioP2;P2;SDS_P1;SDS_P2;PMS_P1;PMS_P2;Temp;Humidity;BMP_temperature;BMP_pressure;BME280_temperature;BME280_humidity;BME280_pressure;Samples;Min_cycle;Max_cycle;Signal;HPM_P1;HPM_P2
2023/08/16 00:00:20;;;;;;;3.35;3.05;;;;;;;21.85;100.00;97933.88;1222766;75;2923250;-72
2023/08/16 00:02:52;;;;;;;3.50;3.20;;;;;;;21.90;100.00;97933.00;1223927;75;2921486;-68
2023/08/16 00:05:25;;;;;;;2.95;2.65;;;;;;;21.89;100.00;97922.41;1222926;75;2926900;-68
2023/08/16 00:07:58;;;;;;;2.65;2.45;;;;;;;21.68;100.00;97930.78;1223860;75;2927174;-68
2023/08/16 00:10:30;;;;;;;2.95;2.75;;;;;;;21.82;100.00;97929.41;1222652;75;2922492;-70
2023/08/16 00:13:03;;;;;;;3.75;3.05;;;;;;;21.87;100.00;97925.00;1223571;75;2921176;-67
2023/08/16 00:15:38;;;;;;;3.30;3.00;;;;;;;21.88;100.00;97923.69;1223384;75;2934329;-68
2023/08/16 00:18:11;;;;;;;3.65;3.25;;;;;;;21.76;100.00;97917.66;1223393;75;2923003;-72
2023/08/16 00:20:44;;;;;;;4.55;4.05;;;;;;;21.43;100.00;97919.25;1221854;75;2937076;-70
2023/08/16 00:23:17;;;;;;;4.20;3.80;;;;;;;21.60;100.00;97921.59;1223849;75;2929181;-72
2023/08/16 00:25:49;;;;;;;4.40;4.10;;;;;;;21.69;100.00;97921.91;1224155;75;2928075;-72
2023/08/16 00:28:22;;;;;;;3.80;3.50;;;;;;;21.71;100.00;97918.53;1223429;75;2921152;-71
2023/08/16 00:30:59;;;;;;;4.80;4.40;;;;;;;21.70;100.00;97928.94;1222630;75;2923582;-70
2023/08/16 00:33:32;;;;;;;3.60;3.30;;;;;;;21.60;100.00;97916.81;1223423;75;2934380;-72
2023/08/16 00:36:05;;;;;;;3.70;3.30;;;;;;;21.86;100.00;97912.34;1223194;75;2919346;-70
2023/08/16 00:38:42;;;;;;;3.45;3.15;;;;;;;21.82;100.00;97909.16;1223659;75;2923054;-70
2023/08/16 00:41:15;;;;;;;3.20;2.90;;;;;;;21.77;100.00;97907.25;1222790;75;2924185;-67
2023/08/16 00:43:48;;;;;;;4.20;3.80;;;;;;;21.76;100.00;97912.06;1224115;75;2921677;-71
2023/08/16 00:46:24;;;;;;;4.35;3.95;;;;;;;21.58;100.00;97908.25;1223369;75;2932057;-68
2023/08/16 00:48:57;;;;;;;4.30;3.90;;;;;;;21.81;100.00;97897.25;1223370;75;2925784;-71
2023/08/16 00:51:30;;;;;;;4.30;3.50;;;;;;;21.70;100.00;97905.91;1222654;75;2926277;-69
2023/08/16 00:54:02;;;;;;;4.15;3.85;;;;;;;21.73;100.00;97909.66;1222835;75;2925332;-69
2023/08/16 00:56:35;;;;;;;4.45;4.05;;;;;;;21.65;100.00;97901.97;1224092;75;2921627;-70
2023/08/16 00:59:08;;;;;;;3.70;3.30;;;;;;;21.90;100.00;97899.53;1223367;75;2925455;-71
2023/08/16 01:01:45;;;;;;;3.20;2.90;;;;;;;21.59;100.00;97895.78;1222581;75;2917326;-70
2023/08/16 01:04:18;;;;;;;4.70;4.30;;;;;;;21.47;100.00;97886.22;1223938;75;2926980;-69
2023/08/16 01:06:53;;;;;;;4.80;4.40;;;;;;;21.38;100.00;97892.25;1222762;75;2930471;-71
2023/08/16 01:09:26;;;;;;;4.40;3.95;;;;;;;21.73;100.00;97896.47;1222762;75;2931257;-71
2023/08/16 01:12:11;;;;;;;3.55;3.25;;;;;;;21.66;100.00;97895.09;1223093;75;2931150;-70
2023/08/16 01:14:54;;;;;;;3.45;3.15;;;;;;;21.64;100.00;97900.47;1223486;75;2929558;-70
2023/08/16 01:17:31;;;;;;;3.60;3.30;;;;;;;21.48;100.00;97899.63;1223614;75;2923965;-71
2023/08/16 01:20:07;;;;;;;4.35;4.00;;;;;;;21.43;100.00;97894.19;1223471;75;2921327;-69
2023/08/16 01:22:51;;;;;;;4.80;4.40;;;;;;;21.31;100.00;97888.13;1223049;75;2922602;-69
2023/08/16 01:25:36;;;;;;;5.50;4.95;;;;;;;21.25;100.00;97895.88;1223393;75;2919004;-73
2023/08/16 01:28:13;;;;;;;6.15;5.65;;;;;;;21.23;100.00;97888.03;1223927;75;2926199;-69
2023/08/16 01:30:48;;;;;;;4.80;4.40;;;;;;;21.45;100.00;97883.25;1222409;75;2923552;-70
2023/08/16 01:33:20;;;;;;;4.55;4.05;;;;;;;21.59;100.00;97889.47;1222947;75;2945267;-72
2023/08/16 01:35:53;;;;;;;4.00;3.60;;;;;;;21.59;100.00;97893.00;1223694;75;2941981;-71
2023/08/16 01:38:27;;;;;;;5.05;4.55;;;;;;;21.43;100.00;97896.97;1222514;75;2938010;-70
2023/08/16 01:41:11;;;;;;;4.40;4.00;;;;;;;21.52;100.00;97890.91;1222821;75;2930276;-71
2023/08/16 01:43:50;;;;;;;5.00;4.60;;;;;;;21.33;100.00;97885.53;1223874;75;2925653;-71
2023/08/16 01:46:23;;;;;;;6.90;6.30;;;;;;;20.74;100.00;97893.50;1223924;75;2931039;-68
2023/08/16 01:48:58;;;;;;;7.85;6.85;;;;;;;20.75;100.00;97886.66;1222706;75;2922510;-71
2023/08/16 01:51:31;;;;;;;7.00;6.40;;;;;;;20.78;100.00;97889.13;1222181;75;2924517;-69
2023/08/16 01:54:04;;;;;;;7.60;6.90;;;;;;;20.97;100.00;97883.38;1223971;75;2921642;-68
2023/08/16 01:56:36;;;;;;;7.00;6.40;;;;;;;21.13;100.00;97891.84;1223266;75;2928105;-67
2023/08/16 01:59:12;;;;;;;6.35;5.85;;;;;;;21.13;100.00;97897.44;1223224;75;2929515;-70
2023/08/16 02:01:45;;;;;;;7.55;6.85;;;;;;;20.93;100.00;97899.66;1222108;75;2929301;-71
2023/08/16 02:04:17;;;;;;;7.95;7.15;;;;;;;20.73;100.00;97894.78;1222831;75;2924833;-72
2023/08/16 02:06:50;;;;;;;6.60;6.00;;;;;;;21.11;100.00;97888.88;1222932;75;2924433;-68
2023/08/16 02:09:22;;;;;;;9.60;7.55;;;;;;;20.74;100.00;97890.72;1223906;75;2925684;-70
2023/08/16 02:11:55;;;;;;;6.85;6.25;;;;;;;21.01;100.00;97894.16;1219808;75;3003810;-68
2023/08/16 02:14:30;;;;;;;5.95;5.45;;;;;;;21.23;100.00;97888.03;1220496;75;3063874;-68
2023/08/16 02:17:03;;;;;;;5.40;4.85;;;;;;;21.29;100.00;97882.34;1223823;75;2935636;-71
2023/08/16 02:19:35;;;;;;;4.65;4.25;;;;;;;21.37;100.00;97874.81;1222877;75;2921573;-69
2023/08/16 02:22:08;;;;;;;5.30;4.80;;;;;;;21.24;100.00;97880.47;1223091;75;2928652;-70
2023/08/16 02:24:41;;;;;;;4.55;4.15;;;;;;;21.41;100.00;97883.59;1222851;75;2919587;-70
2023/08/16 02:27:13;;;;;;;4.30;3.95;;;;;;;21.36;100.00;97878.88;1223517;75;2930158;-71
2023/08/16 02:29:49;;;;;;;4.20;3.80;;;;;;;21.51;100.00;97889.44;1222782;75;2923408;-67
2023/08/16 02:32:21;;;;;;;4.25;3.80;;;;;;;21.28;100.00;97883.63;1222236;75;2926476;-71
2023/08/16 02:34:54;;;;;;;6.15;5.65;;;;;;;21.14;100.00;97887.78;1223489;75;2924921;-70
2023/08/16 02:37:28;;;;;;;5.80;5.20;;;;;;;21.17;100.00;97893.00;1223248;75;2921755;-70
2023/08/16 02:40:01;;;;;;;5.20;4.70;;;;;;;21.27;100.00;97882.16;1223240;75;2925309;-72
2023/08/16 02:42:33;;;;;;;4.50;4.10;;;;;;;21.31;100.00;97884.59;1222061;75;2926467;-72
2023/08/16 02:45:10;;;;;;;4.10;3.50;;;;;;;21.26;100.00;97884.19;1222644;75;2929412;-67
2023/08/16 02:47:43;;;;;;;3.65;3.35;;;;;;;21.41;100.00;97880.06;1223694;75;2925581;-68
2023/08/16 02:50:17;;;;;;;2.95;2.75;;;;;;;21.40;100.00;97881.34;1222967;75;2926042;-67
2023/08/16 02:52:50;;;;;;;3.25;2.80;;;;;;;21.22;100.00;97875.44;1223475;75;2928619;-70
2023/08/16 02:55:22;;;;;;;3.55;3.15;;;;;;;21.32;100.00;97869.38;1220370;75;3062907;-71
2023/08/16 02:57:55;;;;;;;3.10;2.80;;;;;;;21.33;100.00;97870.88;1223078;75;2927722;-69
2023/08/16 03:00:30;;;;;;;2.80;2.55;;;;;;;21.33;100.00;97871.59;1222634;75;2924827;-69
2023/08/16 03:03:03;;;;;;;2.65;2.45;;;;;;;21.36;100.00;97872.56;1223703;75;2932525;-68
2023/08/16 03:05:36;;;;;;;3.00;2.70;;;;;;;21.32;100.00;97872.16;1222930;75;2919989;-65
2023/08/16 03:08:09;;;;;;;2.85;2.40;;;;;;;21.13;100.00;97864.03;1223723;75;2925322;-70
2023/08/16 03:10:41;;;;;;;2.90;2.60;;;;;;;21.06;100.00;97865.44;1222488;75;2925334;-69
2023/08/16 03:13:14;;;;;;;3.30;3.00;;;;;;;20.93;100.00;97862.72;1222843;75;2921244;-70
2023/08/16 03:15:49;;;;;;;3.45;3.15;;;;;;;21.03;100.00;97864.50;1222071;75;2921402;-71
2023/08/16 03:18:22;;;;;;;2.80;2.60;;;;;;;21.16;100.00;97866.44;1223478;75;2920402;-72
2023/08/16 03:20:55;;;;;;;2.95;2.65;;;;;;;21.03;100.00;97872.09;1223126;75;2918489;-69
2023/08/16 03:23:27;;;;;;;2.85;2.65;;;;;;;21.05;100.00;97861.91;1222865;75;2930003;-68
2023/08/16 03:26:00;;;;;;;3.50;3.20;;;;;;;20.95;100.00;97863.69;1223606;75;2923596;-70
2023/08/16 03:28:32;;;;;;;3.10;2.80;;;;;;;21.00;100.00;97865.59;1223593;75;2922637;-73
2023/08/16 03:31:10;;;;;;;3.40;2.70;;;;;;;20.80;100.00;97872.59;1222162;75;2932913;-68
2023/08/16 03:33:43;;;;;;;3.40;2.80;;;;;;;20.92;100.00;97866.78;1222774;75;2927602;-71
2023/08/16 03:36:15;;;;;;;2.85;2.60;;;;;;;20.98;100.00;97879.28;1222432;75;2923819;-69
2023/08/16 03:38:48;;;;;;;2.60;2.40;;;;;;;20.97;100.00;97874.25;1222827;75;2926728;-72
2023/08/16 03:41:21;;;;;;;2.75;2.55;;;;;;;20.99;100.00;97880.78;1223135;75;2930713;-73
2023/08/16 03:43:53;;;;;;;3.55;2.40;;;;;;;20.96;100.00;97884.66;1223223;75;2924092;-71
2023/08/16 03:46:29;;;;;;;2.50;2.30;;;;;;;20.93;100.00;97887.78;1222722;75;2920766;-70
2023/08/16 03:49:01;;;;;;;2.80;2.60;;;;;;;20.88;100.00;97888.63;1223088;75;2928598;-72
2023/08/16 03:51:34;;;;;;;3.30;3.00;;;;;;;20.85;100.00;97894.00;1222663;75;2920758;-68
2023/08/16 03:54:07;;;;;;;3.75;3.45;;;;;;;20.78;100.00;97907.81;1223501;75;2922389;-74
2023/08/16 03:56:40;;;;;;;3.45;3.05;;;;;;;20.81;100.00;97901.94;1223553;75;2925801;-70
2023/08/16 03:59:13;;;;;;;6.15;4.80;;;;;;;20.56;100.00;97892.38;1223627;75;2924878;-71
2023/08/16 04:01:48;;;;;;;8.65;5.60;;;;;;;20.58;100.00;97898.16;1221457;75;2936778;-66
2023/08/16 04:04:21;;;;;;;4.70;4.30;;;;;;;20.66;100.00;97907.34;1223711;75;2916795;-67
2023/08/16 04:06:54;;;;;;;4.80;4.30;;;;;;;20.34;100.00;97916.53;1223323;75;2934997;-71
2023/08/16 04:09:26;;;;;;;4.55;4.15;;;;;;;20.58;100.00;97914.84;1222441;75;2923375;-69
2023/08/16 04:11:59;;;;;;;4.45;4.05;;;;;;;20.74;100.00;97916.50;1223787;75;2922772;-69
2023/08/16 04:14:31;;;;;;;4.00;3.70;;;;;;;20.71;100.00;97917.59;1224056;75;2926075;-73
2023/08/16 04:17:07;;;;;;;4.10;3.70;;;;;;;20.80;100.00;97919.91;1223406;75;2925691;-71
2023/08/16 04:19:39;;;;;;;3.70;3.40;;;;;;;20.82;100.00;97919.38;1223496;75;2917865;-71
2023/08/16 04:22:12;;;;;;;4.40;4.00;;;;;;;20.60;100.00;97923.41;1222640;75;2926686;-73
2023/08/16 04:24:44;;;;;;;5.35;4.75;;;;;;;20.54;100.00;97922.72;1222646;75;2924467;-67
2023/08/16 04:27:17;;;;;;;5.80;5.20;;;;;;;20.41;100.00;97927.03;1223553;75;2931147;-66
2023/08/16 04:29:50;;;;;;;5.60;5.10;;;;;;;20.73;100.00;97917.78;1222922;75;2932339;-69
2023/08/16 04:32:25;;;;;;;5.40;4.90;;;;;;;20.76;100.00;97918.75;1221790;75;2922869;-71
2023/08/16 04:34:58;;;;;;;5.30;4.05;;;;;;;20.92;100.00;97925.97;1223455;75;2924525;-72
2023/08/16 04:37:30;;;;;;;3.80;3.50;;;;;;;20.95;100.00;97924.13;1224270;75;2919989;-71
2023/08/16 04:40:03;;;;;;;3.80;3.50;;;;;;;20.89;100.00;97927.06;1222965;75;2925667;-73
2023/08/16 04:42:36;;;;;;;3.90;3.50;;;;;;;21.00;100.00;97926.81;1221565;75;2928594;-72
2023/08/16 04:45:10;;;;;;;3.50;3.20;;;;;;;21.05;100.00;97925.19;1223285;75;2923971;-72
2023/08/16 04:47:46;;;;;;;3.50;3.20;;;;;;;21.10;100.00;97935.44;1223487;75;2925895;-70
2023/08/16 04:50:18;;;;;;;3.70;3.40;;;;;;;21.18;100.00;97929.94;1223340;75;2924784;-69
2023/08/16 04:52:51;;;;;;;3.65;3.35;;;;;;;21.22;100.00;97930.38;1223776;75;2930876;-71
2023/08/16 04:55:24;;;;;;;3.85;3.55;;;;;;;21.28;100.00;97940.06;1223452;75;2921575;-74
2023/08/16 04:57:56;;;;;;;3.35;3.05;;;;;;;21.34;100.00;97937.16;1221196;75;2937607;-70
2023/08/16 05:00:29;;;;;;;3.40;3.10;;;;;;;21.41;100.00;97935.78;1222610;75;2933259;-71
2023/08/16 05:03:04;;;;;;;3.60;3.30;;;;;;;21.37;100.00;97936.06;1223333;75;2924894;-67
2023/08/16 05:05:37;;;;;;;4.95;3.85;;;;;;;21.43;100.00;97936.72;1222834;75;2921541;-72
2023/08/16 05:08:09;;;;;;;4.50;4.10;;;;;;;21.54;100.00;97948.88;1221874;75;2925132;-70
2023/08/16 05:10:42;;;;;;;5.70;5.20;;;;;;;21.44;100.00;97948.59;1223599;75;2918494;-74
2023/08/16 05:13:15;;;;;;;5.95;5.35;;;;;;;21.33;100.00;97952.38;1222916;75;2929093;-67
2023/08/16 05:15:49;;;;;;;9.25;6.95;;;;;;;21.32;100.00;97950.13;1223360;75;2924864;-72
2023/08/16 05:18:25;;;;;;;6.70;6.10;;;;;;;21.72;100.00;97950.72;1223153;75;2921389;-71
2023/08/16 05:21:00;;;;;;;6.25;5.40;;;;;;;21.96;100.00;97951.59;1222443;75;2928130;-71
2023/08/16 05:23:33;;;;;;;5.50;5.00;;;;;;;22.05;100.00;97956.69;1223163;75;2921480;-70
2023/08/16 05:26:06;;;;;;;8.10;7.30;;;;;;;22.06;100.00;97955.41;1222865;75;2927101;-71
2023/08/16 05:28:38;;;;;;;10.60;9.60;;;;;;;21.87;100.00;97947.28;1223215;75;2924055;-69
2023/08/16 05:31:12;;;;;;;7.85;7.05;;;;;;;21.96;100.00;97959.97;1222507;75;2935720;-73
2023/08/16 05:33:47;;;;;;;6.60;6.00;;;;;;;22.26;100.00;97956.66;1223117;75;2922348;-70
2023/08/16 05:36:22;;;;;;;5.40;4.90;;;;;;;22.47;100.00;97959.38;1223306;75;2928290;-69
2023/08/16 05:38:55;;;;;;;5.05;4.55;;;;;;;22.51;100.00;97957.75;1222857;75;2920040;-73
2023/08/16 05:41:28;;;;;;;6.60;5.55;;;;;;;22.27;100.00;97970.06;1222604;75;2926192;-73
2023/08/16 05:44:01;;;;;;;9.50;8.25;;;;;;;22.01;100.00;97964.66;1221916;75;2925200;-73
2023/08/16 05:46:34;;;;;;;7.55;6.85;;;;;;;22.23;100.00;97969.66;1222801;75;2928947;-71
2023/08/16 05:49:09;;;;;;;8.00;7.30;;;;;;;22.50;100.00;97966.66;1221802;75;2931861;-71
2023/08/16 05:51:41;;;;;;;8.55;7.80;;;;;;;22.20;100.00;97970.78;1222839;75;2930383;-69
2023/08/16 05:54:14;;;;;;;9.60;7.85;;;;;;;22.53;100.00;97965.53;1222604;75;2925724;-72
2023/08/16 05:56:46;;;;;;;10.20;8.35;;;;;;;22.41;100.00;97972.75;1222720;75;2933379;-72
2023/08/16 05:59:19;;;;;;;10.55;7.90;;;;;;;22.48;100.00;97967.19;1222445;75;2935085;-73
2023/08/16 06:01:52;;;;;;;8.95;8.15;;;;;;;22.77;100.00;97972.72;1221393;75;2924324;-73
2023/08/16 06:04:27;;;;;;;9.60;8.10;;;;;;;22.77;100.00;97972.72;1222999;75;2921457;-69
2023/08/16 06:07:01;;;;;;;12.15;7.95;;;;;;;22.89;100.00;97967.56;1221367;75;2924765;-71
2023/08/16 06:09:34;;;;;;;13.35;9.30;;;;;;;22.68;100.00;97965.63;1222890;75;2923835;-72
2023/08/16 06:12:08;;;;;;;11.60;8.30;;;;;;;23.00;100.00;97969.31;1220136;75;2931378;-70
2023/08/16 06:14:40;;;;;;;8.85;7.55;;;;;;;23.14;100.00;97974.19;1222641;75;2930308;-71
2023/08/16 06:17:13;;;;;;;9.55;8.30;;;;;;;22.84;100.00;97966.41;1222767;75;2932729;-69
2023/08/16 06:19:49;;;;;;;9.35;8.30;;;;;;;22.88;100.00;97968.88;1221515;75;2928247;-72
2023/08/16 06:22:21;;;;;;;10.15;8.05;;;;;;;23.01;100.00;97968.75;1222181;75;2928323;-72
2023/08/16 06:24:54;;;;;;;8.85;7.60;;;;;;;23.11;100.00;97971.75;1222420;75;2926105;-74
2023/08/16 06:27:26;;;;;;;9.05;8.05;;;;;;;23.41;100.00;97967.53;1222374;75;2929859;-71
2023/08/16 06:29:59;;;;;;;8.20;7.40;;;;;;;23.36;99.93;97977.59;1218712;75;3130463;-68
2023/08/16 06:32:32;;;;;;;13.05;8.05;;;;;;;23.56;97.75;97964.75;1222394;75;2930361;-69
2023/08/16 06:35:09;;;;;;;8.00;7.20;;;;;;;23.81;95.56;97965.72;1217085;75;2927295;-71
2023/08/16 06:37:44;;;;;;;10.65;7.95;;;;;;;23.71;95.37;97956.34;1223440;75;2934011;-70
2023/08/16 06:40:17;;;;;;;8.40;7.60;;;;;;;23.76;94.90;97965.88;1222565;75;2924434;-71
2023/08/16 06:42:49;;;;;;;8.80;7.90;;;;;;;23.91;93.47;97954.72;1223019;75;2957791;-72
2023/08/16 06:45:22;;;;;;;10.60;7.45;;;;;;;24.04;91.54;97959.34;1223550;75;2917952;-71
2023/08/16 06:47:55;;;;;;;10.10;7.10;;;;;;;24.15;89.46;97966.59;1222750;75;2920452;-71
2023/08/16 06:50:30;;;;;;;8.30;7.45;;;;;;;24.30;89.16;97961.00;1221604;75;2921158;-68
2023/08/16 06:53:02;;;;;;;7.65;6.40;;;;;;;24.78;86.89;97952.66;1223720;75;2927989;-71
2023/08/16 06:55:38;;;;;;;6.00;5.50;;;;;;;25.12;84.69;97950.63;1223341;75;2930762;-73
2023/08/16 06:58:10;;;;;;;7.60;5.80;;;;;;;24.94;87.42;97950.50;1223136;75;2930183;-70
2023/08/16 07:00:48;;;;;;;6.10;5.55;;;;;;;25.19;84.72;97950.59;1223274;75;2921108;-72
2023/08/16 07:03:21;;;;;;;8.00;6.70;;;;;;;25.12;85.35;97951.34;1223744;75;2921176;-72
2023/08/16 07:05:57;;;;;;;6.55;5.85;;;;;;;25.57;81.28;97952.38;1223978;75;2934283;-72
2023/08/16 07:08:30;;;;;;;5.40;4.90;;;;;;;25.55;81.78;97954.28;1222919;75;2934381;-70
2023/08/16 07:11:02;;;;;;;5.30;4.85;;;;;;;25.97;78.50;97954.31;1222369;75;2926874;-72
2023/08/16 07:13:35;;;;;;;5.25;4.15;;;;;;;25.90;78.86;97958.69;1221398;75;2942174;-67
2023/08/16 07:16:08;;;;;;;4.40;4.00;;;;;;;26.24;77.11;97954.44;1223125;75;2925200;-71
2023/08/16 07:18:41;;;;;;;5.80;5.20;;;;;;;25.97;78.94;97959.91;1222830;75;2930190;-70
2023/08/16 07:21:17;;;;;;;5.20;4.65;;;;;;;26.18;75.92;97965.16;1222653;75;2920406;-71
2023/08/16 07:23:49;;;;;;;6.65;6.05;;;;;;;25.89;76.12;97948.03;1220595;75;2983513;-70
2023/08/16 07:26:22;;;;;;;6.90;5.75;;;;;;;25.89;76.04;97965.59;1223026;75;2947355;-68
2023/08/16 07:28:54;;;;;;;6.40;5.80;;;;;;;26.38;74.40;97957.63;1223590;75;2941494;-70
2023/08/16 07:31:27;;;;;;;5.00;4.60;;;;;;;26.63;72.53;97957.59;1221529;75;2923381;-72
2023/08/16 07:34:00;;;;;;;5.20;4.70;;;;;;;26.83;71.48;97963.34;1222392;75;2932041;-68
2023/08/16 07:36:35;;;;;;;7.70;5.90;;;;;;;26.47;72.41;97967.47;1220859;75;2926809;-72
2023/08/16 07:39:07;;;;;;;7.35;5.90;;;;;;;26.74;74.21;97973.16;1221705;75;2927264;-73
2023/08/16 07:41:40;;;;;;;8.85;5.65;;;;;;;27.03;73.22;97961.38;1221971;75;2922540;-67
2023/08/16 07:44:13;;;;;;;5.10;4.60;;;;;;;27.40;69.16;97970.63;1221567;75;2925057;-72
2023/08/16 07:46:48;;;;;;;4.10;3.70;;;;;;;27.67;70.02;97978.28;1221793;75;2919849;-72
2023/08/16 07:49:21;;;;;;;6.50;4.85;;;;;;;27.55;67.50;97980.91;1223116;75;2920643;-71
2023/08/16 07:51:58;;;;;;;7.00;6.30;;;;;;;27.54;68.10;97973.78;1223022;75;2928912;-71
2023/08/16 07:54:30;;;;;;;7.75;5.55;;;;;;;27.49;66.98;97974.81;1223421;75;2923606;-71
2023/08/16 07:57:03;;;;;;;5.40;4.90;;;;;;;27.88;65.59;97966.53;1221639;75;2918031;-73
2023/08/16 07:59:36;;;;;;;4.90;4.35;;;;;;;28.14;66.61;97976.19;1222998;75;2928659;-72
2023/08/16 08:02:09;;;;;;;6.70;4.60;;;;;;;27.85;65.38;97978.97;1222871;75;2928965;-71
2023/08/16 08:04:42;;;;;;;5.20;4.70;;;;;;;27.79;66.66;97973.59;1223119;75;2929516;-74
2023/08/16 08:07:18;;;;;;;5.10;4.60;;;;;;;27.89;66.38;97974.38;1220221;75;2926498;-69
2023/08/16 08:09:50;;;;;;;4.75;4.35;;;;;;;28.23;64.32;97967.78;1220944;75;2949155;-70
2023/08/16 08:12:23;;;;;;;4.30;3.90;;;;;;;28.63;63.91;97969.31;1222609;75;2925242;-72
2023/08/16 08:14:57;;;;;;;4.90;4.40;;;;;;;28.83;62.93;97970.00;1222219;75;2930827;-72
2023/08/16 08:17:30;;;;;;;3.90;3.60;;;;;;;28.95;61.11;97970.16;1222863;75;2923414;-73
2023/08/16 08:20:03;;;;;;;5.25;4.70;;;;;;;28.91;61.30;97971.94;1222576;75;2932917;-71
2023/08/16 08:22:41;;;;;;;5.50;5.00;;;;;;;29.37;61.91;97976.59;1222067;75;2929969;-71
2023/08/16 08:25:13;;;;;;;5.60;4.70;;;;;;;29.04;61.48;97972.22;1223491;75;2916107;-73
2023/08/16 08:27:46;;;;;;;5.50;4.95;;;;;;;29.07;60.98;97971.03;1222741;75;2931504;-72
2023/08/16 08:30:19;;;;;;;5.25;4.60;;;;;;;29.70;60.09;97968.31;1222955;75;2924642;-74
2023/08/16 08:32:51;;;;;;;4.05;3.65;;;;;;;29.55;60.67;97971.50;1222671;75;2921667;-71
2023/08/16 08:35:24;;;;;;;5.35;4.35;;;;;;;29.68;61.63;97971.00;1223419;75;2925758;-71
2023/08/16 08:37:59;;;;;;;5.30;4.80;;;;;;;29.49;61.85;97963.34;1222809;75;2923596;-73
2023/08/16 08:40:34;;;;;;;4.25;3.85;;;;;;;29.87;60.32;97964.50;1222770;75;2925976;-73
2023/08/16 08:43:08;;;;;;;5.05;4.55;;;;;;;29.46;61.81;97965.28;1223023;75;2923206;-73
2023/08/16 08:45:43;;;;;;;4.35;3.95;;;;;;;29.92;62.00;97960.63;1223184;75;2923528;-73
2023/08/16 08:48:16;;;;;;;4.10;3.70;;;;;;;29.93;61.77;97953.66;1222990;75;2922512;-68
2023/08/16 08:50:50;;;;;;;5.30;4.15;;;;;;;29.76;59.42;97951.09;1221685;75;2928675;-70
2023/08/16 08:53:26;;;;;;;4.90;4.20;;;;;;;29.46;58.16;97958.91;1220532;75;2933325;-70
2023/08/16 08:56:10;;;;;;;6.65;3.85;;;;;;;29.61;58.04;97958.56;1221226;75;2929919;-71
2023/08/16 08:58:46;;;;;;;7.00;3.85;;;;;;;29.77;58.22;97946.91;1222822;75;2939206;-70
2023/08/16 09:01:20;;;;;;;4.15;3.75;;;;;;;30.08;57.56;97956.06;1220182;75;2925157;-69
2023/08/16 09:03:56;;;;;;;3.95;3.55;;;;;;;30.33;57.70;97947.16;1222533;75;2927612;-71
2023/08/16 09:06:29;;;;;;;4.85;3.65;;;;;;;30.36;57.47;97950.84;1222809;75;2933026;-71
2023/08/16 09:09:05;;;;;;;4.20;3.80;;;;;;;30.66;56.78;97951.34;1223230;75;2923830;-71
2023/08/16 09:11:37;;;;;;;5.25;4.75;;;;;;;30.49;54.25;97946.72;1222126;75;2927846;-73
2023/08/16 09:14:13;;;;;;;4.90;4.40;;;;;;;30.82;53.11;97946.00;1222846;75;2920042;-70
2023/08/16 09:16:45;;;;;;;4.50;3.45;;;;;;;31.03;53.47;97950.84;1222441;75;2928087;-72
2023/08/16 09:19:18;;;;;;;4.10;3.55;;;;;;;30.54;52.07;97954.13;1223284;75;2923982;-70
2023/08/16 09:21:53;;;;;;;4.10;3.70;;;;;;;30.39;52.00;97960.19;1201719;67;4081241;-70
2023/08/16 09:24:29;;;;;;;4.90;3.80;;;;;;;30.29;51.92;97960.28;1221258;75;2932321;-70
2023/08/16 09:27:03;;;;;;;6.30;3.75;;;;;;;30.28;50.97;97953.13;1219313;75;3113061;-71
2023/08/16 09:29:36;;;;;;;4.90;3.30;;;;;;;31.18;52.34;97951.13;1221833;75;2927903;-72
2023/08/16 09:32:11;;;;;;;4.85;3.35;;;;;;;31.37;49.56;97955.81;1222636;75;2934280;-68
2023/08/16 09:34:43;;;;;;;4.00;3.40;;;;;;;31.48;47.70;97959.31;1223135;75;2927923;-68
2023/08/16 09:37:16;;;;;;;3.50;3.20;;;;;;;31.90;48.59;97957.56;1222581;75;2945774;-73
2023/08/16 09:39:59;;;;;;;2.95;2.70;;;;;;;31.74;51.01;97960.16;1221578;75;2930707;-74
2023/08/16 09:42:37;;;;;;;4.50;3.65;;;;;;;31.44;47.61;97954.16;1222642;75;2925360;-73
2023/08/16 09:45:11;;;;;;;4.65;3.45;;;;;;;30.96;46.97;97956.13;1222762;75;2940106;-70
2023/08/16 09:47:47;;;;;;;5.75;3.55;;;;;;;31.20;47.51;97956.19;1223496;75;2921389;-74
2023/08/16 09:50:22;;;;;;;3.85;3.55;;;;;;;31.92;48.93;97952.75;1223041;75;2927477;-71
2023/08/16 09:52:56;;;;;;;4.30;3.70;;;;;;;31.76;49.91;97952.53;1223155;75;2922053;-73
